sensor_id;sensor_type;location;lat;lon;timestamp;P1;durP1;ratioP1;P2;durP2;ratioP2
61009;SDS011;46897;55.340;86.082;2022-07-06T00:01:01;6.50;;;3.83;;
61009;SDS011;46897;55.340;86.082;2022-07-06T00:03:30;6.38;;;4.03;;
61009;SDS011;46897;55.340;86.082;2022-07-06T00:05:59;7.13;;;3.80;;
61009;SDS011;46897;55.340;86.082;2022-07-06T00:08:28;9.13;;;4.57;;
61009;SDS011;46897;55.340;86.082;2022-07-06T00:10:57;7.55;;;4.45;;
61009;SDS011;46897;55.340;86.082;2022-07-06T00:13:28;4.70;;;3.67;;
61009;SDS011;46897;55.340;86.082;2022-07-06T00:15:58;6.30;;;3.50;;
61009;SDS011;46897;55.340;86.082;2022-07-06T00:18:27;9.35;;;4.05;;
61009;SDS011;46897;55.340;86.082;2022-07-06T00:20:56;5.78;;;3.65;;
61009;SDS011;46897;55.340;86.082;2022-07-06T00:23:25;9.65;;;4.10;;
61009;SDS011;46897;55.340;86.082;2022-07-06T00:25:55;5.25;;;3.95;;
61009;SDS011;46897;55.340;86.082;2022-07-06T00:28:24;6.80;;;4.28;;
61009;SDS011;46897;55.340;86.082;2022-07-06T00:30:55;6.25;;;4.18;;
61009;SDS011;46897;55.340;86.082;2022-07-06T00:33:24;5.53;;;4.40;;
61009;SDS011;46897;55.340;86.082;2022-07-06T00:35:53;6.55;;;4.47;;
61009;SDS011;46897;55.340;86.082;2022-07-06T00:38:22;6.93;;;5.20;;
61009;SDS011;46897;55.340;86.082;2022-07-06T00:40:52;7.28;;;5.07;;
61009;SDS011;46897;55.340;86.082;2022-07-06T00:43:21;8.48;;;5.28;;
61009;SDS011;46897;55.340;86.082;2022-07-06T00:45:50;9.57;;;5.32;;
61009;SDS011;46897;55.340;86.082;2022-07-06T00:48:21;7.25;;;4.80;;
61009;SDS011;46897;55.340;86.082;2022-07-06T00:50:51;11.05;;;5.35;;
61009;SDS011;46897;55.340;86.082;2022-07-06T00:53:20;8.73;;;4.90;;
61009;SDS011;46897;55.340;86.082;2022-07-06T00:55:49;7.15;;;4.88;;
61009;SDS011;46897;55.340;86.082;2022-07-06T00:58:18;7.93;;;5.60;;
61009;SDS011;46897;55.340;86.082;2022-07-06T01:00:49;6.57;;;5.20;;
61009;SDS011;46897;55.340;86.082;2022-07-06T01:03:18;7.18;;;4.97;;
61009;SDS011;46897;55.340;86.082;2022-07-06T01:05:49;6.68;;;5.57;;
61009;SDS011;46897;55.340;86.082;2022-07-06T01:08:19;7.03;;;5.47;;
61009;SDS011;46897;55.340;86.082;2022-07-06T01:10:50;8.02;;;5.90;;
61009;SDS011;46897;55.340;86.082;2022-07-06T01:13:19;10.02;;;7.30;;
61009;SDS011;46897;55.340;86.082;2022-07-06T01:15:48;7.30;;;5.72;;
61009;SDS011;46897;55.340;86.082;2022-07-06T01:18:18;6.82;;;5.10;;
61009;SDS011;46897;55.340;86.082;2022-07-06T01:20:49;12.52;;;5.28;;
61009;SDS011;46897;55.340;86.082;2022-07-06T01:23:18;8.23;;;6.03;;
61009;SDS011;46897;55.340;86.082;2022-07-06T01:25:48;12.00;;;5.43;;
61009;SDS011;46897;55.340;86.082;2022-07-06T01:28:17;7.93;;;5.38;;
61009;SDS011;46897;55.340;86.082;2022-07-06T01:30:46;10.73;;;5.75;;
61009;SDS011;46897;55.340;86.082;2022-07-06T01:33:16;20.95;;;14.98;;
61009;SDS011;46897;55.340;86.082;2022-07-06T01:35:45;8.10;;;6.03;;
61009;SDS011;46897;55.340;86.082;2022-07-06T01:38:17;11.20;;;7.30;;
61009;SDS011;46897;55.340;86.082;2022-07-06T01:40:46;11.93;;;6.75;;
61009;SDS011;46897;55.340;86.082;2022-07-06T01:43:16;12.38;;;6.78;;
61009;SDS011;46897;55.340;86.082;2022-07-06T01:45:45;8.38;;;6.57;;
61009;SDS011;46897;55.340;86.082;2022-07-06T01:48:14;10.18;;;7.05;;
61009;SDS011;46897;55.340;86.082;2022-07-06T01:50:44;8.80;;;6.10;;
61009;SDS011;46897;55.340;86.082;2022-07-06T01:53:13;7.18;;;5.47;;
61009;SDS011;46897;55.340;86.082;2022-07-06T01:55:44;9.27;;;6.70;;
61009;SDS011;46897;55.340;86.082;2022-07-06T01:58:13;9.75;;;6.22;;
61009;SDS011;46897;55.340;86.082;2022-07-06T02:00:42;8.18;;;5.38;;
61009;SDS011;46897;55.340;86.082;2022-07-06T02:03:12;10.50;;;6.35;;
61009;SDS011;46897;55.340;86.082;2022-07-06T02:05:41;8.95;;;5.03;;
61009;SDS011;46897;55.340;86.082;2022-07-06T02:08:10;17.33;;;6.95;;
61009;SDS011;46897;55.340;86.082;2022-07-06T02:10:40;11.23;;;5.45;;
61009;SDS011;46897;55.340;86.082;2022-07-06T02:13:11;9.23;;;4.53;;
61009;SDS011;46897;55.340;86.082;2022-07-06T02:15:40;15.57;;;5.13;;
61009;SDS011;46897;55.340;86.082;2022-07-06T02:18:09;10.30;;;5.10;;
61009;SDS011;46897;55.340;86.082;2022-07-06T02:20:38;12.23;;;4.85;;
61009;SDS011;46897;55.340;86.082;2022-07-06T02:23:07;13.35;;;5.25;;
61009;SDS011;46897;55.340;86.082;2022-07-06T02:25:38;12.88;;;5.20;;
61009;SDS011;46897;55.340;86.082;2022-07-06T02:28:07;13.18;;;4.60;;
61009;SDS011;46897;55.340;86.082;2022-07-06T02:30:38;11.23;;;4.70;;
61009;SDS011;46897;55.340;86.082;2022-07-06T02:33:07;11.00;;;5.20;;
61009;SDS011;46897;55.340;86.082;2022-07-06T02:35:36;9.30;;;4.32;;
61009;SDS011;46897;55.340;86.082;2022-07-06T02:38:11;7.53;;;4.03;;
61009;SDS011;46897;55.340;86.082;2022-07-06T02:40:40;7.90;;;4.63;;
61009;SDS011;46897;55.340;86.082;2022-07-06T02:43:09;7.60;;;3.40;;
61009;SDS011;46897;55.340;86.082;2022-07-06T02:45:40;8.80;;;4.93;;
61009;SDS011;46897;55.340;86.082;2022-07-06T02:48:10;11.95;;;5.00;;
61009;SDS011;46897;55.340;86.082;2022-07-06T02:50:39;14.38;;;9.73;;
61009;SDS011;46897;55.340;86.082;2022-07-06T02:53:08;8.88;;;4.93;;
61009;SDS011;46897;55.340;86.082;2022-07-06T02:55:37;8.05;;;5.38;;
61009;SDS011;46897;55.340;86.082;2022-07-06T02:58:07;18.65;;;5.60;;
61009;SDS011;46897;55.340;86.082;2022-07-06T03:00:36;10.90;;;5.32;;
61009;SDS011;46897;55.340;86.082;2022-07-06T03:03:07;6.13;;;4.18;;
61009;SDS011;46897;55.340;86.082;2022-07-06T03:05:37;7.88;;;3.70;;
61009;SDS011;46897;55.340;86.082;2022-07-06T03:08:06;8.98;;;3.55;;
61009;SDS011;46897;55.340;86.082;2022-07-06T03:10:35;11.15;;;5.55;;
61009;SDS011;46897;55.340;86.082;2022-07-06T03:13:04;7.03;;;3.75;;
61009;SDS011;46897;55.340;86.082;2022-07-06T03:15:34;20.13;;;7.93;;
61009;SDS011;46897;55.340;86.082;2022-07-06T03:18:03;11.98;;;4.82;;
61009;SDS011;46897;55.340;86.082;2022-07-06T03:20:34;11.38;;;4.65;;
61009;SDS011;46897;55.340;86.082;2022-07-06T03:23:03;8.80;;;4.25;;
61009;SDS011;46897;55.340;86.082;2022-07-06T03:25:32;9.02;;;4.25;;
61009;SDS011;46897;55.340;86.082;2022-07-06T03:28:02;8.55;;;4.03;;
61009;SDS011;46897;55.340;86.082;2022-07-06T03:30:41;8.35;;;3.08;;
61009;SDS011;46897;55.340;86.082;2022-07-06T03:33:11;9.35;;;3.20;;
61009;SDS011;46897;55.340;86.082;2022-07-06T03:35:41;7.97;;;3.17;;
61009;SDS011;46897;55.340;86.082;2022-07-06T03:38:11;5.88;;;2.85;;
61009;SDS011;46897;55.340;86.082;2022-07-06T03:40:40;7.63;;;2.83;;
61009;SDS011;46897;55.340;86.082;2022-07-06T03:43:09;5.25;;;2.78;;
61009;SDS011;46897;55.340;86.082;2022-07-06T03:45:38;7.03;;;3.25;;
61009;SDS011;46897;55.340;86.082;2022-07-06T03:48:08;5.45;;;2.63;;
61009;SDS011;46897;55.340;86.082;2022-07-06T03:50:37;9.63;;;3.40;;
61009;SDS011;46897;55.340;86.082;2022-07-06T03:53:08;7.40;;;3.30;;
61009;SDS011;46897;55.340;86.082;2022-07-06T03:55:37;8.95;;;4.10;;
61009;SDS011;46897;55.340;86.082;2022-07-06T03:58:07;5.05;;;3.05;;
61009;SDS011;46897;55.340;86.082;2022-07-06T04:00:39;10.13;;;5.78;;
61009;SDS011;46897;55.340;86.082;2022-07-06T04:03:08;6.97;;;3.38;;
61009;SDS011;46897;55.340;86.082;2022-07-06T04:05:37;4.65;;;3.13;;
61009;SDS011;46897;55.340;86.082;2022-07-06T04:08:08;6.50;;;3.00;;
61009;SDS011;46897;55.340;86.082;2022-07-06T04:10:37;7.10;;;2.80;;
61009;SDS011;46897;55.340;86.082;2022-07-06T04:13:06;7.68;;;2.95;;
61009;SDS011;46897;55.340;86.082;2022-07-06T04:15:35;8.57;;;3.00;;
61009;SDS011;46897;55.340;86.082;2022-07-06T04:18:05;8.52;;;2.60;;
61009;SDS011;46897;55.340;86.082;2022-07-06T04:20:34;5.63;;;2.47;;
61009;SDS011;46897;55.340;86.082;2022-07-06T04:23:04;3.95;;;2.00;;
61009;SDS011;46897;55.340;86.082;2022-07-06T04:25:35;6.45;;;2.20;;
61009;SDS011;46897;55.340;86.082;2022-07-06T04:28:05;4.45;;;2.10;;
61009;SDS011;46897;55.340;86.082;2022-07-06T04:30:34;4.82;;;2.30;;
61009;SDS011;46897;55.340;86.082;2022-07-06T04:33:04;8.18;;;2.40;;
61009;SDS011;46897;55.340;86.082;2022-07-06T04:35:33;4.80;;;2.20;;
61009;SDS011;46897;55.340;86.082;2022-07-06T04:38:02;6.28;;;2.00;;
61009;SDS011;46897;55.340;86.082;2022-07-06T04:40:32;6.68;;;2.08;;
61009;SDS011;46897;55.340;86.082;2022-07-06T04:43:02;4.75;;;2.47;;
61009;SDS011;46897;55.340;86.082;2022-07-06T04:45:32;3.22;;;1.88;;
61009;SDS011;46897;55.340;86.082;2022-07-06T04:48:01;7.25;;;2.30;;
61009;SDS011;46897;55.340;86.082;2022-07-06T04:50:30;30.98;;;20.00;;
61009;SDS011;46897;55.340;86.082;2022-07-06T04:53:05;9.43;;;2.95;;
61009;SDS011;46897;55.340;86.082;2022-07-06T04:55:34;7.32;;;2.80;;
61009;SDS011;46897;55.340;86.082;2022-07-06T04:58:05;4.10;;;2.38;;
61009;SDS011;46897;55.340;86.082;2022-07-06T05:00:35;7.00;;;2.60;;
61009;SDS011;46897;55.340;86.082;2022-07-06T05:03:04;3.63;;;2.30;;
61009;SDS011;46897;55.340;86.082;2022-07-06T05:05:33;5.47;;;2.60;;
61009;SDS011;46897;55.340;86.082;2022-07-06T05:08:06;3.95;;;2.65;;
61009;SDS011;46897;55.340;86.082;2022-07-06T05:10:35;7.43;;;2.92;;
61009;SDS011;46897;55.340;86.082;2022-07-06T05:13:06;6.38;;;2.88;;
61009;SDS011;46897;55.340;86.082;2022-07-06T05:15:37;9.77;;;3.00;;
61009;SDS011;46897;55.340;86.082;2022-07-06T05:18:09;7.72;;;3.75;;
61009;SDS011;46897;55.340;86.082;2022-07-06T05:20:38;4.38;;;2.92;;
61009;SDS011;46897;55.340;86.082;2022-07-06T05:23:08;8.65;;;3.03;;
61009;SDS011;46897;55.340;86.082;2022-07-06T05:25:37;6.53;;;3.20;;
61009;SDS011;46897;55.340;86.082;2022-07-06T05:28:08;6.30;;;3.13;;
61009;SDS011;46897;55.340;86.082;2022-07-06T05:30:37;7.57;;;2.90;;
61009;SDS011;46897;55.340;86.082;2022-07-06T05:33:08;5.97;;;3.10;;
61009;SDS011;46897;55.340;86.082;2022-07-06T05:35:38;5.85;;;2.53;;
61009;SDS011;46897;55.340;86.082;2022-07-06T05:38:17;9.55;;;3.00;;
61009;SDS011;46897;55.340;86.082;2022-07-06T05:40:47;9.80;;;2.47;;
61009;SDS011;46897;55.340;86.082;2022-07-06T05:43:18;6.65;;;2.58;;
61009;SDS011;46897;55.340;86.082;2022-07-06T05:45:48;8.68;;;3.17;;
61009;SDS011;46897;55.340;86.082;2022-07-06T05:48:17;9.98;;;4.57;;
61009;SDS011;46897;55.340;86.082;2022-07-06T05:51:03;7.22;;;3.70;;
61009;SDS011;46897;55.340;86.082;2022-07-06T05:53:32;6.68;;;2.95;;
61009;SDS011;46897;55.340;86.082;2022-07-06T05:56:02;5.68;;;3.58;;
61009;SDS011;46897;55.340;86.082;2022-07-06T05:58:33;5.07;;;2.85;;
61009;SDS011;46897;55.340;86.082;2022-07-06T06:01:02;4.97;;;3.20;;
61009;SDS011;46897;55.340;86.082;2022-07-06T06:03:34;7.63;;;5.55;;
61009;SDS011;46897;55.340;86.082;2022-07-06T06:06:03;4.15;;;2.03;;
61009;SDS011;46897;55.340;86.082;2022-07-06T06:08:33;10.82;;;2.50;;
61009;SDS011;46897;55.340;86.082;2022-07-06T06:11:05;8.95;;;3.00;;
61009;SDS011;46897;55.340;86.082;2022-07-06T06:13:38;8.82;;;3.40;;
61009;SDS011;46897;55.340;86.082;2022-07-06T06:16:08;7.53;;;3.67;;
61009;SDS011;46897;55.340;86.082;2022-07-06T06:18:38;7.25;;;3.00;;
61009;SDS011;46897;55.340;86.082;2022-07-06T06:21:08;6.05;;;2.72;;
61009;SDS011;46897;55.340;86.082;2022-07-06T06:23:38;6.15;;;2.25;;
61009;SDS011;46897;55.340;86.082;2022-07-06T06:26:07;6.70;;;2.40;;
61009;SDS011;46897;55.340;86.082;2022-07-06T06:28:39;7.75;;;2.17;;
61009;SDS011;46897;55.340;86.082;2022-07-06T06:31:09;4.32;;;1.90;;
61009;SDS011;46897;55.340;86.082;2022-07-06T06:33:38;7.00;;;2.25;;
61009;SDS011;46897;55.340;86.082;2022-07-06T06:36:07;4.97;;;2.55;;
61009;SDS011;46897;55.340;86.082;2022-07-06T06:38:37;7.82;;;2.60;;
61009;SDS011;46897;55.340;86.082;2022-07-06T06:41:09;5.43;;;2.40;;
61009;SDS011;46897;55.340;86.082;2022-07-06T06:43:39;4.93;;;2.20;;
61009;SDS011;46897;55.340;86.082;2022-07-06T06:46:09;3.67;;;2.20;;
61009;SDS011;46897;55.340;86.082;2022-07-06T06:48:38;6.13;;;1.95;;
61009;SDS011;46897;55.340;86.082;2022-07-06T06:51:07;4.93;;;3.00;;
61009;SDS011;46897;55.340;86.082;2022-07-06T06:53:36;5.38;;;2.40;;
61009;SDS011;46897;55.340;86.082;2022-07-06T06:56:06;5.53;;;2.60;;
61009;SDS011;46897;55.340;86.082;2022-07-06T06:58:36;4.45;;;2.08;;
61009;SDS011;46897;55.340;86.082;2022-07-06T07:01:27;3.60;;;2.35;;
61009;SDS011;46897;55.340;86.082;2022-07-06T07:03:57;5.40;;;2.00;;
61009;SDS011;46897;55.340;86.082;2022-07-06T07:06:26;5.30;;;1.73;;
61009;SDS011;46897;55.340;86.082;2022-07-06T07:08:55;9.10;;;4.97;;
61009;SDS011;46897;55.340;86.082;2022-07-06T07:11:24;3.58;;;1.90;;
61009;SDS011;46897;55.340;86.082;2022-07-06T07:13:54;8.98;;;2.90;;
61009;SDS011;46897;55.340;86.082;2022-07-06T07:16:23;5.78;;;2.05;;
61009;SDS011;46897;55.340;86.082;2022-07-06T07:18:54;5.07;;;3.17;;
61009;SDS011;46897;55.340;86.082;2022-07-06T07:21:23;6.32;;;2.00;;
61009;SDS011;46897;55.340;86.082;2022-07-06T07:23:52;4.78;;;1.90;;
61009;SDS011;46897;55.340;86.082;2022-07-06T07:26:21;6.35;;;2.20;;
61009;SDS011;46897;55.340;86.082;2022-07-06T07:28:50;5.78;;;2.10;;
61009;SDS011;46897;55.340;86.082;2022-07-06T07:31:19;7.28;;;2.17;;
61009;SDS011;46897;55.340;86.082;2022-07-06T07:33:49;6.57;;;2.17;;
61009;SDS011;46897;55.340;86.082;2022-07-06T07:36:26;2.55;;;2.22;;
61009;SDS011;46897;55.340;86.082;2022-07-06T07:38:55;5.20;;;2.00;;
61009;SDS011;46897;55.340;86.082;2022-07-06T07:41:24;9.35;;;2.30;;
61009;SDS011;46897;55.340;86.082;2022-07-06T07:43:53;5.05;;;2.30;;
61009;SDS011;46897;55.340;86.082;2022-07-06T07:46:23;3.95;;;1.75;;
61009;SDS011;46897;55.340;86.082;2022-07-06T07:48:52;3.67;;;1.98;;
61009;SDS011;46897;55.340;86.082;2022-07-06T07:51:21;2.97;;;2.00;;
61009;SDS011;46897;55.340;86.082;2022-07-06T07:53:52;4.93;;;2.10;;
61009;SDS011;46897;55.340;86.082;2022-07-06T07:56:21;5.95;;;2.20;;
61009;SDS011;46897;55.340;86.082;2022-07-06T07:58:51;5.30;;;2.33;;
61009;SDS011;46897;55.340;86.082;2022-07-06T08:01:20;4.93;;;2.05;;
61009;SDS011;46897;55.340;86.082;2022-07-06T08:03:49;4.10;;;1.90;;
61009;SDS011;46897;55.340;86.082;2022-07-06T08:06:18;4.30;;;3.60;;
61009;SDS011;46897;55.340;86.082;2022-07-06T08:08:48;4.78;;;1.92;;
61009;SDS011;46897;55.340;86.082;2022-07-06T08:11:18;5.70;;;1.80;;
61009;SDS011;46897;55.340;86.082;2022-07-06T08:13:48;3.95;;;2.10;;
61009;SDS011;46897;55.340;86.082;2022-07-06T08:16:18;3.42;;;1.98;;
61009;SDS011;46897;55.340;86.082;2022-07-06T08:18:48;4.68;;;2.10;;
61009;SDS011;46897;55.340;86.082;2022-07-06T08:21:17;5.30;;;2.13;;
61009;SDS011;46897;55.340;86.082;2022-07-06T08:23:51;3.53;;;2.10;;
61009;SDS011;46897;55.340;86.082;2022-07-06T08:26:21;4.78;;;2.60;;
61009;SDS011;46897;55.340;86.082;2022-07-06T08:28:51;11.15;;;3.42;;
61009;SDS011;46897;55.340;86.082;2022-07-06T08:31:21;6.95;;;4.43;;
61009;SDS011;46897;55.340;86.082;2022-07-06T08:34:10;7.43;;;4.40;;
61009;SDS011;46897;55.340;86.082;2022-07-06T08:36:39;3.50;;;2.45;;
61009;SDS011;46897;55.340;86.082;2022-07-06T08:39:08;6.22;;;2.90;;
61009;SDS011;46897;55.340;86.082;2022-07-06T08:41:40;16.02;;;8.70;;
61009;SDS011;46897;55.340;86.082;2022-07-06T08:44:14;13.32;;;8.02;;
61009;SDS011;46897;55.340;86.082;2022-07-06T08:46:44;29.05;;;18.75;;
61009;SDS011;46897;55.340;86.082;2022-07-06T08:49:14;28.05;;;15.50;;
61009;SDS011;46897;55.340;86.082;2022-07-06T08:51:45;46.67;;;21.20;;
61009;SDS011;46897;55.340;86.082;2022-07-06T08:54:15;55.08;;;21.52;;
61009;SDS011;46897;55.340;86.082;2022-07-06T08:56:49;41.83;;;16.58;;
61009;SDS011;46897;55.340;86.082;2022-07-06T08:59:18;41.95;;;18.75;;
61009;SDS011;46897;55.340;86.082;2022-07-06T09:01:47;29.27;;;15.90;;
61009;SDS011;46897;55.340;86.082;2022-07-06T09:04:17;26.77;;;13.18;;
61009;SDS011;46897;55.340;86.082;2022-07-06T09:06:50;24.52;;;10.73;;
61009;SDS011;46897;55.340;86.082;2022-07-06T09:09:20;21.50;;;9.30;;
61009;SDS011;46897;55.340;86.082;2022-07-06T09:11:53;20.27;;;7.72;;
61009;SDS011;46897;55.340;86.082;2022-07-06T09:14:29;16.75;;;7.82;;
61009;SDS011;46897;55.340;86.082;2022-07-06T09:17:01;24.10;;;12.32;;
61009;SDS011;46897;55.340;86.082;2022-07-06T09:19:34;30.23;;;12.50;;
61009;SDS011;46897;55.340;86.082;2022-07-06T09:22:04;59.30;;;16.40;;
61009;SDS011;46897;55.340;86.082;2022-07-06T09:24:35;51.13;;;16.05;;
61009;SDS011;46897;55.340;86.082;2022-07-06T09:27:16;58.97;;;14.02;;
61009;SDS011;46897;55.340;86.082;2022-07-06T09:29:54;49.20;;;12.68;;
61009;SDS011;46897;55.340;86.082;2022-07-06T09:32:27;57.45;;;13.10;;
61009;SDS011;46897;55.340;86.082;2022-07-06T09:34:56;50.05;;;14.07;;
61009;SDS011;46897;55.340;86.082;2022-07-06T09:37:26;35.10;;;9.93;;
61009;SDS011;46897;55.340;86.082;2022-07-06T09:40:15;39.67;;;10.18;;
61009;SDS011;46897;55.340;86.082;2022-07-06T09:42:48;39.53;;;9.57;;
61009;SDS011;46897;55.340;86.082;2022-07-06T09:45:20;35.70;;;8.95;;
61009;SDS011;46897;55.340;86.082;2022-07-06T09:47:52;29.63;;;10.73;;
61009;SDS011;46897;55.340;86.082;2022-07-06T09:50:22;30.20;;;11.23;;
61009;SDS011;46897;55.340;86.082;2022-07-06T09:52:55;32.60;;;12.45;;
61009;SDS011;46897;55.340;86.082;2022-07-06T09:55:24;34.10;;;12.93;;
61009;SDS011;46897;55.340;86.082;2022-07-06T09:57:55;35.35;;;14.35;;
61009;SDS011;46897;55.340;86.082;2022-07-06T10:00:24;23.20;;;11.55;;
61009;SDS011;46897;55.340;86.082;2022-07-06T10:02:53;17.88;;;8.60;;
61009;SDS011;46897;55.340;86.082;2022-07-06T10:05:23;14.95;;;7.45;;
61009;SDS011;46897;55.340;86.082;2022-07-06T10:07:57;14.63;;;7.45;;
61009;SDS011;46897;55.340;86.082;2022-07-06T10:10:27;6.50;;;4.15;;
61009;SDS011;46897;55.340;86.082;2022-07-06T10:12:59;8.45;;;3.65;;
61009;SDS011;46897;55.340;86.082;2022-07-06T10:15:30;6.20;;;3.47;;
61009;SDS011;46897;55.340;86.082;2022-07-06T10:18:00;9.65;;;2.90;;
61009;SDS011;46897;55.340;86.082;2022-07-06T10:20:31;14.05;;;3.70;;
61009;SDS011;46897;55.340;86.082;2022-07-06T10:23:04;9.43;;;2.85;;
61009;SDS011;46897;55.340;86.082;2022-07-06T10:25:34;7.97;;;3.58;;
61009;SDS011;46897;55.340;86.082;2022-07-06T10:28:05;11.98;;;3.40;;
61009;SDS011;46897;55.340;86.082;2022-07-06T10:30:42;19.00;;;3.25;;
61009;SDS011;46897;55.340;86.082;2022-07-06T10:33:13;6.47;;;2.88;;
61009;SDS011;46897;55.340;86.082;2022-07-06T10:35:43;31.23;;;4.88;;
61009;SDS011;46897;55.340;86.082;2022-07-06T10:38:14;6.53;;;2.50;;
61009;SDS011;46897;55.340;86.082;2022-07-06T10:40:43;19.17;;;4.10;;
61009;SDS011;46897;55.340;86.082;2022-07-06T10:43:32;8.35;;;3.63;;
61009;SDS011;46897;55.340;86.082;2022-07-06T10:46:06;7.10;;;3.38;;
61009;SDS011;46897;55.340;86.082;2022-07-06T10:48:36;4.20;;;2.83;;
61009;SDS011;46897;55.340;86.082;2022-07-06T10:51:07;4.32;;;2.63;;
61009;SDS011;46897;55.340;86.082;2022-07-06T10:53:37;4.32;;;2.30;;
61009;SDS011;46897;55.340;86.082;2022-07-06T10:56:07;15.07;;;3.08;;
61009;SDS011;46897;55.340;86.082;2022-07-06T10:58:40;4.18;;;2.70;;
61009;SDS011;46897;55.340;86.082;2022-07-06T11:01:14;7.75;;;2.65;;
61009;SDS011;46897;55.340;86.082;2022-07-06T11:03:44;6.15;;;2.42;;
61009;SDS011;46897;55.340;86.082;2022-07-06T11:06:17;5.38;;;2.60;;
61009;SDS011;46897;55.340;86.082;2022-07-06T11:08:48;7.53;;;3.38;;
61009;SDS011;46897;55.340;86.082;2022-07-06T11:11:24;6.15;;;3.75;;
61009;SDS011;46897;55.340;86.082;2022-07-06T11:13:56;5.25;;;3.70;;
61009;SDS011;46897;55.340;86.082;2022-07-06T11:16:29;9.13;;;3.70;;
61009;SDS011;46897;55.340;86.082;2022-07-06T11:19:04;5.75;;;3.08;;
61009;SDS011;46897;55.340;86.082;2022-07-06T11:21:36;9.50;;;3.63;;
61009;SDS011;46897;55.340;86.082;2022-07-06T11:24:10;4.65;;;3.17;;
61009;SDS011;46897;55.340;86.082;2022-07-06T11:26:41;5.15;;;3.63;;
61009;SDS011;46897;55.340;86.082;2022-07-06T11:29:14;5.25;;;3.20;;
61009;SDS011;46897;55.340;86.082;2022-07-06T11:31:44;4.80;;;2.95;;
61009;SDS011;46897;55.340;86.082;2022-07-06T11:34:17;6.18;;;3.10;;
61009;SDS011;46897;55.340;86.082;2022-07-06T11:36:48;5.20;;;3.25;;
61009;SDS011;46897;55.340;86.082;2022-07-06T11:39:17;7.13;;;3.63;;
61009;SDS011;46897;55.340;86.082;2022-07-06T11:41:47;6.43;;;3.50;;
61009;SDS011;46897;55.340;86.082;2022-07-06T11:44:19;6.25;;;3.45;;
61009;SDS011;46897;55.340;86.082;2022-07-06T11:46:48;6.13;;;3.00;;
61009;SDS011;46897;55.340;86.082;2022-07-06T11:49:18;4.05;;;2.90;;
61009;SDS011;46897;55.340;86.082;2022-07-06T11:51:50;4.88;;;2.90;;
61009;SDS011;46897;55.340;86.082;2022-07-06T11:54:20;4.97;;;3.22;;
61009;SDS011;46897;55.340;86.082;2022-07-06T11:56:50;5.10;;;2.88;;
61009;SDS011;46897;55.340;86.082;2022-07-06T11:59:23;7.13;;;3.33;;
61009;SDS011;46897;55.340;86.082;2022-07-06T12:02:00;8.00;;;3.70;;
61009;SDS011;46897;55.340;86.082;2022-07-06T12:04:31;5.72;;;3.58;;
61009;SDS011;46897;55.340;86.082;2022-07-06T12:07:02;4.93;;;3.35;;
61009;SDS011;46897;55.340;86.082;2022-07-06T12:09:33;5.82;;;3.45;;
61009;SDS011;46897;55.340;86.082;2022-07-06T12:12:04;10.25;;;3.53;;
61009;SDS011;46897;55.340;86.082;2022-07-06T12:14:37;7.32;;;3.35;;
61009;SDS011;46897;55.340;86.082;2022-07-06T12:17:09;6.50;;;4.82;;
61009;SDS011;46897;55.340;86.082;2022-07-06T12:19:40;7.80;;;4.75;;
61009;SDS011;46897;55.340;86.082;2022-07-06T12:22:09;7.63;;;4.05;;
61009;SDS011;46897;55.340;86.082;2022-07-06T12:24:42;5.63;;;4.15;;
61009;SDS011;46897;55.340;86.082;2022-07-06T12:27:15;10.45;;;4.10;;
61009;SDS011;46897;55.340;86.082;2022-07-06T12:29:47;11.63;;;6.00;;
61009;SDS011;46897;55.340;86.082;2022-07-06T12:32:17;9.40;;;6.10;;
61009;SDS011;46897;55.340;86.082;2022-07-06T12:35:01;8.70;;;4.97;;
61009;SDS011;46897;55.340;86.082;2022-07-06T12:37:31;9.48;;;4.78;;
61009;SDS011;46897;55.340;86.082;2022-07-06T12:40:01;17.25;;;5.82;;
61009;SDS011;46897;55.340;86.082;2022-07-06T12:42:33;6.85;;;4.40;;
61009;SDS011;46897;55.340;86.082;2022-07-06T12:45:05;6.88;;;3.88;;
61009;SDS011;46897;55.340;86.082;2022-07-06T12:47:36;11.38;;;4.25;;
61009;SDS011;46897;55.340;86.082;2022-07-06T12:50:10;8.52;;;4.40;;
61009;SDS011;46897;55.340;86.082;2022-07-06T12:52:40;8.82;;;5.38;;
61009;SDS011;46897;55.340;86.082;2022-07-06T12:55:09;8.77;;;5.13;;
61009;SDS011;46897;55.340;86.082;2022-07-06T12:57:42;9.30;;;5.03;;
61009;SDS011;46897;55.340;86.082;2022-07-06T13:00:15;10.13;;;5.97;;
61009;SDS011;46897;55.340;86.082;2022-07-06T13:02:46;24.60;;;14.75;;
61009;SDS011;46897;55.340;86.082;2022-07-06T13:05:36;14.82;;;5.68;;
61009;SDS011;46897;55.340;86.082;2022-07-06T13:08:06;13.77;;;7.30;;
61009;SDS011;46897;55.340;86.082;2022-07-06T13:10:36;10.10;;;5.05;;
61009;SDS011;46897;55.340;86.082;2022-07-06T13:13:08;8.50;;;5.03;;
61009;SDS011;46897;55.340;86.082;2022-07-06T13:15:40;6.50;;;4.60;;
61009;SDS011;46897;55.340;86.082;2022-07-06T13:18:10;12.55;;;5.10;;
61009;SDS011;46897;55.340;86.082;2022-07-06T13:20:39;9.65;;;5.10;;
61009;SDS011;46897;55.340;86.082;2022-07-06T13:23:09;10.20;;;4.05;;
61009;SDS011;46897;55.340;86.082;2022-07-06T13:25:39;10.10;;;4.70;;
61009;SDS011;46897;55.340;86.082;2022-07-06T13:28:08;14.73;;;7.63;;
61009;SDS011;46897;55.340;86.082;2022-07-06T13:30:39;16.77;;;7.93;;
61009;SDS011;46897;55.340;86.082;2022-07-06T13:33:08;15.85;;;9.02;;
61009;SDS011;46897;55.340;86.082;2022-07-06T13:35:37;13.60;;;8.00;;
61009;SDS011;46897;55.340;86.082;2022-07-06T13:38:06;14.60;;;8.25;;
61009;SDS011;46897;55.340;86.082;2022-07-06T13:40:41;11.38;;;7.45;;
61009;SDS011;46897;55.340;86.082;2022-07-06T13:43:10;15.82;;;7.25;;
61009;SDS011;46897;55.340;86.082;2022-07-06T13:45:41;14.77;;;7.65;;
61009;SDS011;46897;55.340;86.082;2022-07-06T13:48:10;18.48;;;7.47;;
61009;SDS011;46897;55.340;86.082;2022-07-06T13:50:40;17.95;;;8.68;;
61009;SDS011;46897;55.340;86.082;2022-07-06T13:53:09;16.63;;;8.32;;
61009;SDS011;46897;55.340;86.082;2022-07-06T13:55:38;14.23;;;7.22;;
61009;SDS011;46897;55.340;86.082;2022-07-06T13:58:08;22.35;;;7.85;;
61009;SDS011;46897;55.340;86.082;2022-07-06T14:00:37;14.93;;;7.15;;
61009;SDS011;46897;55.340;86.082;2022-07-06T14:03:08;13.35;;;6.97;;
61009;SDS011;46897;55.340;86.082;2022-07-06T14:05:40;16.05;;;7.35;;
61009;SDS011;46897;55.340;86.082;2022-07-06T14:08:10;13.40;;;7.05;;
61009;SDS011;46897;55.340;86.082;2022-07-06T14:10:39;13.48;;;7.50;;
61009;SDS011;46897;55.340;86.082;2022-07-06T14:13:08;14.90;;;7.03;;
61009;SDS011;46897;55.340;86.082;2022-07-06T14:15:45;15.38;;;7.15;;
61009;SDS011;46897;55.340;86.082;2022-07-06T14:18:16;17.92;;;6.70;;
61009;SDS011;46897;55.340;86.082;2022-07-06T14:20:45;17.85;;;7.70;;
61009;SDS011;46897;55.340;86.082;2022-07-06T14:23:16;19.77;;;7.80;;
61009;SDS011;46897;55.340;86.082;2022-07-06T14:25:46;11.40;;;6.85;;
61009;SDS011;46897;55.340;86.082;2022-07-06T14:28:16;17.08;;;7.95;;
61009;SDS011;46897;55.340;86.082;2022-07-06T14:30:46;20.27;;;9.10;;
61009;SDS011;46897;55.340;86.082;2022-07-06T14:33:16;16.45;;;9.38;;
61009;SDS011;46897;55.340;86.082;2022-07-06T14:35:46;22.15;;;8.52;;
61009;SDS011;46897;55.340;86.082;2022-07-06T14:38:18;13.68;;;8.15;;
61009;SDS011;46897;55.340;86.082;2022-07-06T14:40:48;12.43;;;8.10;;
61009;SDS011;46897;55.340;86.082;2022-07-06T14:43:17;16.35;;;6.95;;
61009;SDS011;46897;55.340;86.082;2022-07-06T14:45:47;12.95;;;7.00;;
61009;SDS011;46897;55.340;86.082;2022-07-06T14:48:18;13.55;;;8.32;;